Time;durP1;ratioP1;P1;durP2;ratioP2;P2;SDS_P1;SDS_P2;PMS_P1;PMS_P2;Temp;Humidity;BMP_temperature;BMP_pressure;BME280_temperature;BME280_humidity;BME280_pressure;Samples;Min_cycle;Max_cycle;Signal;HPM_P1;HPM_P2
2021/08/15 00:09:27;;;;;;;11.30;2.67;;;26.60;99.90;;;;;;20619517;28;20314;-73
2021/08/15 00:19:33;;;;;;;1.25;1.15;;;26.40;99.90;;;;;;20620737;28;20223;-74
2021/08/15 00:29:37;;;;;;;14.98;2.80;;;26.20;99.90;;;;;;20616687;28;20192;-73
2021/08/15 00:39:42;;;;;;;1.23;0.82;;;26.40;99.90;;;;;;20613200;28;20526;-74
2021/08/15 00:49:45;;;;;;;3.17;1.38;;;26.50;99.90;;;;;;20616774;28;20196;-74
2021/08/15 00:59:50;;;;;;;4.95;2.55;;;26.50;99.90;;;;;;20619025;28;20861;-74
2021/08/15 01:09:54;;;;;;;7.25;3.50;;;26.60;99.90;;;;;;20616422;28;20690;-74
2021/08/15 01:20:02;;;;;;;4.85;2.40;;;26.70;99.90;;;;;;20599759;28;20231;-74
2021/08/15 01:30:09;;;;;;;2.47;1.67;;;26.60;99.90;;;;;;20616408;28;20234;-74
2021/08/15 01:40:39;;;;;;;8.52;2.00;;;26.40;99.90;;;;;;20616264;28;20223;-77
2021/08/15 01:51:25;;;;;;;5.95;2.47;;;26.30;99.90;;;;;;20607873;28;20219;-78
2021/08/15 02:02:09;;;;;;;6.43;1.58;;;26.10;99.90;;;;;;20624892;23;21097;-84
2021/08/15 02:12:57;;;;;;;2.97;1.58;;;26.10;99.90;;;;;;20606795;28;20254;-85
2021/08/15 02:23:41;;;;;;;1.13;1.02;;;25.90;99.90;;;;;;20613056;28;20203;-82
2021/08/15 02:35:15;;;;;;;7.97;2.67;;;25.70;99.90;;;;;;20615592;28;20226;-83
2021/08/15 02:46:04;;;;;;;2.35;1.52;;;25.40;99.90;;;;;;20619129;28;20318;-84
2021/08/15 03:08:17;;;;;;;2.00;1.48;;;25.00;99.90;;;;;;20532300;23;20275;-81
2021/08/15 03:19:02;;;;;;;5.50;1.60;;;25.10;99.90;;;;;;20526828;28;20935;-77
2021/08/15 03:29:47;;;;;;;30.80;2.42;;;25.50;99.90;;;;;;20524847;28;20207;-79
2021/08/15 03:40:31;;;;;;;1.67;1.35;;;25.50;99.90;;;;;;20538737;28;20224;-80
2021/08/15 03:51:17;;;;;;;14.35;0.90;;;25.50;99.90;;;;;;20539573;28;20196;-80
2021/08/15 04:02:01;;;;;;;0.95;0.88;;;25.20;99.90;;;;;;20560519;28;20238;-81
2021/08/15 04:12:47;;;;;;;0.90;0.88;;;25.00;99.90;;;;;;20618386;28;21164;-82
2021/08/15 04:23:32;;;;;;;2.92;2.13;;;25.00;99.90;;;;;;20616831;28;21001;-81
2021/08/15 04:34:17;;;;;;;2.35;1.13;;;24.90;99.90;;;;;;20616888;28;20227;-83
2021/08/15 04:45:02;;;;;;;5.07;1.75;;;24.80;99.90;;;;;;20614875;28;20250;-80
2021/08/15 04:55:48;;;;;;;0.45;0.45;;;24.90;99.90;;;;;;20612963;28;20239;-83
2021/08/15 05:06:34;;;;;;;0.60;0.60;;;25.00;99.90;;;;;;20615995;28;20223;-81
2021/08/15 05:17:19;;;;;;;1.50;1.23;;;24.80;99.90;;;;;;20615764;28;20231;-77
2021/08/15 05:28:04;;;;;;;0.40;0.40;;;24.70;99.90;;;;;;20613642;28;20784;-80
2021/08/15 05:38:50;;;;;;;0.93;0.88;;;24.80;99.90;;;;;;20616449;28;20710;-81
2021/08/15 05:49:34;;;;;;;1.38;0.80;;;24.80;99.90;;;;;;20614620;28;20222;-82
2021/08/15 06:00:20;;;;;;;2.40;1.85;;;25.10;99.90;;;;;;20594154;28;20227;-80
2021/08/15 06:11:04;;;;;;;1.60;1.00;;;25.10;99.90;;;;;;20618187;28;20563;-76
2021/08/15 06:21:51;;;;;;;0.82;0.82;;;25.40;99.90;;;;;;20665784;28;20243;-81
2021/08/15 06:32:47;;;;;;;1.98;1.70;;;25.50;99.90;;;;;;20624997;28;20227;-79
2021/08/15 06:43:34;;;;;;;1.25;1.15;;;25.70;99.90;;;;;;20618562;28;20548;-81
2021/08/15 06:54:19;;;;;;;2.92;1.80;;;26.00;99.90;;;;;;20612598;28;20223;-81
2021/08/15 07:05:05;;;;;;;2.47;0.93;;;26.30;99.90;;;;;;20616236;28;20321;-80
2021/08/15 07:15:50;;;;;;;1.15;1.10;;;26.50;99.90;;;;;;20651639;28;20227;-84
2021/08/15 07:26:51;;;;;;;2.20;1.52;;;26.70;99.90;;;;;;20634641;28;20199;-85
2021/08/15 07:37:41;;;;;;;1.33;1.23;;;26.70;99.90;;;;;;20641273;28;20262;-84
2021/08/15 07:48:26;;;;;;;1.75;1.35;;;26.80;99.90;;;;;;20634008;28;20196;-85
2021/08/15 07:59:11;;;;;;;5.55;2.30;;;26.80;99.90;;;;;;20631115;28;20234;-71
2021/08/15 08:09:57;;;;;;;2.75;0.98;;;27.00;99.90;;;;;;20628925;28;20195;-71
2021/08/15 08:20:42;;;;;;;1.05;0.95;;;27.40;99.90;;;;;;20621814;28;20223;-80
2021/08/15 08:31:27;;;;;;;0.45;0.40;;;27.40;99.90;;;;;;20625407;28;20211;-83
2021/08/15 08:42:15;;;;;;;1.85;1.10;;;27.20;99.90;;;;;;20624617;28;20219;-85
2021/08/15 08:53:07;;;;;;;2.78;1.52;;;27.50;99.90;;;;;;20630104;28;20690;-89
2021/08/15 09:04:01;;;;;;;1.45;1.15;;;27.50;99.90;;;;;;20631050;28;20238;-84
2021/08/15 09:15:07;;;;;;;2.25;1.70;;;27.80;99.90;;;;;;20620493;28;20267;-81
2021/08/15 09:26:15;;;;;;;3.47;1.73;;;27.80;99.90;;;;;;20621426;28;20235;-84
2021/08/15 09:37:04;;;;;;;4.15;1.63;;;27.90;99.90;;;;;;20615062;28;20227;-78
2021/08/15 09:47:48;;;;;;;3.95;1.30;;;28.10;99.90;;;;;;20615189;28;20191;-79
2021/08/15 09:58:35;;;;;;;1.17;0.85;;;28.60;99.90;;;;;;20623779;28;20809;-79
2021/08/15 10:09:21;;;;;;;1.50;0.95;;;29.10;99.90;;;;;;20614865;28;20223;-81
2021/08/15 10:20:11;;;;;;;1.45;1.35;;;29.50;99.90;;;;;;20611648;28;20219;-80
2021/08/15 10:30:57;;;;;;;1.17;0.68;;;29.10;99.90;;;;;;20613527;28;20970;-79
2021/08/15 10:41:55;;;;;;;4.10;1.95;;;29.20;99.90;;;;;;20611728;28;20219;-78
2021/08/15 10:52:41;;;;;;;8.43;4.05;;;29.60;99.90;;;;;;20631474;28;20203;-86
2021/08/15 11:03:55;;;;;;;7.18;1.40;;;29.70;99.90;;;;;;20623402;28;21059;-81
2021/08/15 11:14:59;;;;;;;7.68;1.75;;;29.70;99.90;;;;;;20623600;28;20605;-81
2021/08/15 11:25:46;;;;;;;3.40;1.85;;;30.90;99.90;;;;;;20622666;28;20203;-71
2021/08/15 11:36:30;;;;;;;2.55;1.67;;;31.70;99.90;;;;;;20624001;28;20297;-80
2021/08/15 11:47:21;;;;;;;6.47;1.42;;;31.60;99.90;;;;;;20624216;28;20229;-80
2021/08/15 11:58:05;;;;;;;2.70;1.70;;;32.20;99.90;;;;;;20622270;28;20219;-77
2021/08/15 12:08:55;;;;;;;2.85;2.60;;;32.90;99.90;;;;;;20622943;28;20249;-81
2021/08/15 12:19:40;;;;;;;1.60;1.27;;;32.70;99.90;;;;;;20623488;28;20269;-84
2021/08/15 12:30:30;;;;;;;2.08;1.55;;;32.50;99.90;;;;;;20619594;28;20250;-79
2021/08/15 12:41:29;;;;;;;11.70;1.25;;;32.50;99.90;;;;;;20620629;28;20230;-81
2021/08/15 12:52:19;;;;;;;2.80;2.03;;;30.50;99.90;;;;;;20621676;28;20207;-82
2021/08/15 13:03:05;;;;;;;3.83;2.42;;;30.60;99.90;;;;;;20619116;28;20239;-78
2021/08/15 13:13:51;;;;;;;2.85;2.42;;;32.00;99.90;;;;;;20576579;28;20231;-84
2021/08/15 13:24:36;;;;;;;9.65;1.85;;;32.80;99.90;;;;;;20560218;28;20253;-85
2021/08/15 13:35:24;;;;;;;16.40;2.25;;;33.10;99.90;;;;;;20617643;28;20587;-80
2021/08/15 13:46:09;;;;;;;2.65;1.67;;;32.90;99.90;;;;;;20617374;28;20203;-80
2021/08/15 13:56:55;;;;;;;10.40;1.75;;;32.80;99.90;;;;;;20623542;28;20596;-79
2021/08/15 14:07:39;;;;;;;2.63;1.67;;;34.30;99.90;;;;;;20534478;28;20231;-76
2021/08/15 14:18:24;;;;;;;2.00;1.65;;;35.20;99.90;;;;;;20541206;28;20242;-79
2021/08/15 14:29:10;;;;;;;15.82;1.65;;;35.40;99.90;;;;;;20530473;28;20196;-77
2021/08/15 14:39:55;;;;;;;2.00;1.83;;;34.70;99.90;;;;;;20526331;28;20224;-78
2021/08/15 14:50:39;;;;;;;3.33;1.77;;;35.20;99.90;;;;;;20526725;28;20251;-81
2021/08/15 15:01:25;;;;;;;1.63;1.27;;;34.70;99.90;;;;;;20564278;28;20714;-78
2021/08/15 15:12:10;;;;;;;4.13;1.67;;;34.70;99.90;;;;;;20602388;28;20651;-80
2021/08/15 15:22:57;;;;;;;5.95;3.60;;;34.30;99.90;;;;;;20609313;28;20231;-77
2021/08/15 15:33:41;;;;;;;4.45;2.15;;;33.90;99.90;;;;;;20619032;28;20608;-81
2021/08/15 15:44:28;;;;;;;3.03;2.38;;;33.90;99.90;;;;;;20624030;28;20263;-77
2021/08/15 15:55:12;;;;;;;6.03;2.53;;;32.30;99.90;;;;;;20617751;28;20227;-78
2021/08/15 16:05:58;;;;;;;7.43;3.13;;;31.70;99.90;;;;;;20610263;28;20231;-69
2021/08/15 16:16:02;;;;;;;2.50;2.05;;;31.30;99.90;;;;;;20629089;28;20305;-78
2021/08/15 16:32:26;;;;;;;2.17;1.63;;;30.80;99.90;;;;;;21103345;27;20597;-74
2021/08/15 16:42:30;;;;;;;2.00;1.80;;;30.10;99.90;;;;;;21100712;28;20282;-79
2021/08/15 16:52:35;;;;;;;3.38;2.88;;;29.70;99.90;;;;;;21103984;28;20286;-81
2021/08/15 17:02:39;;;;;;;3.35;2.42;;;30.50;99.90;;;;;;21100220;28;21027;-81
2021/08/15 17:12:44;;;;;;;3.83;2.42;;;30.30;99.90;;;;;;21091120;28;20305;-79
2021/08/15 17:22:48;;;;;;;3.95;2.92;;;30.00;99.90;;;;;;21083858;28;20242;-72
2021/08/15 17:32:54;;;;;;;9.57;2.78;;;29.40;99.90;;;;;;21071569;28;20195;-74
2021/08/15 17:43:02;;;;;;;5.47;3.45;;;29.40;99.90;;;;;;21033775;28;20545;-73
2021/08/15 17:53:08;;;;;;;7.00;3.58;;;29.70;99.90;;;;;;21030388;28;20188;-76
2021/08/15 18:03:17;;;;;;;9.75;3.22;;;29.30;99.90;;;;;;21032971;28;20219;-74
2021/08/15 18:13:22;;;;;;;4.82;2.78;;;29.20;99.90;;;;;;21033339;28;20641;-74
2021/08/15 18:23:26;;;;;;;5.37;2.90;;;28.90;99.90;;;;;;21033612;28;20895;-80
2021/08/15 18:33:32;;;;;;;5.25;3.03;;;28.70;99.90;;;;;;20994578;28;20200;-72
2021/08/15 18:43:35;;;;;;;6.85;4.05;;;28.30;99.90;;;;;;20994926;28;20596;-79
2021/08/15 18:53:40;;;;;;;6.72;2.92;;;28.00;99.90;;;;;;20981734;28;20204;-72
2021/08/15 19:03:44;;;;;;;3.33;2.50;;;28.00;99.90;;;;;;21033895;28;20216;-80
2021/08/15 19:13:49;;;;;;;12.35;3.95;;;27.90;99.90;;;;;;21032574;28;20199;-82
2021/08/15 19:23:53;;;;;;;3.33;2.10;;;27.90;99.90;;;;;;20960816;28;20243;-78
2021/08/15 19:33:58;;;;;;;2.72;1.65;;;27.60;99.90;;;;;;20945743;28;20192;-76
2021/08/15 19:44:02;;;;;;;5.53;2.90;;;27.30;99.90;;;;;;20982205;28;20219;-80
2021/08/15 19:54:07;;;;;;;3.13;1.98;;;27.40;99.90;;;;;;21028318;28;20192;-77
2021/08/15 20:04:12;;;;;;;6.60;5.07;;;27.10;99.90;;;;;;21001362;28;20242;-77
2021/08/15 20:14:19;;;;;;;2.53;2.03;;;27.10;99.90;;;;;;20944784;28;20193;-75
2021/08/15 20:24:23;;;;;;;2.45;2.25;;;26.90;99.90;;;;;;20950371;28;20252;-76
2021/08/15 20:34:29;;;;;;;4.05;2.28;;;26.80;99.90;;;;;;20941869;28;20196;-75
2021/08/15 20:44:32;;;;;;;4.78;2.00;;;26.90;99.90;;;;;;20940182;28;20224;-76
2021/08/15 20:54:38;;;;;;;3.38;2.35;;;26.80;99.90;;;;;;20943390;28;20200;-76
2021/08/15 21:04:42;;;;;;;4.55;2.22;;;26.90;99.90;;;;;;21007435;28;20220;-78
2021/08/15 21:14:47;;;;;;;1.67;1.50;;;26.80;99.90;;;;;;21017028;28;118198;-80
2021/08/15 21:24:51;;;;;;;5.55;2.47;;;26.80;99.90;;;;;;20914963;28;20239;-79
2021/08/15 21:34:56;;;;;;;11.15;2.95;;;26.70;99.90;;;;;;20948524;28;20284;-79
2021/08/15 21:44:59;;;;;;;4.65;2.80;;;26.40;99.90;;;;;;20869465;28;20223;-76
2021/08/15 21:55:05;;;;;;;3.40;2.00;;;26.30;99.90;;;;;;20866403;28;20284;-75
2021/08/15 22:15:29;;;;;;;6.05;3.30;;;26.10;99.90;;;;;;20662219;23;20262;-76
2021/08/15 22:25:33;;;;;;;4.57;2.83;;;26.20;99.90;;;;;;20689572;28;20230;-80
2021/08/15 22:35:38;;;;;;;3.00;2.70;;;26.30;99.90;;;;;;20703048;28;20445;-79
2021/08/15 22:45:42;;;;;;;3.88;2.08;;;25.90;99.90;;;;;;20705940;28;20505;-82
2021/08/15 22:55:49;;;;;;;4.57;3.00;;;26.00;99.90;;;;;;20700844;28;20328;-81
2021/08/15 23:05:52;;;;;;;2.92;2.22;;;25.90;99.90;;;;;;20698178;28;20687;-79
2021/08/15 23:15:58;;;;;;;2.22;1.73;;;25.60;99.90;;;;;;20701097;28;20227;-79
2021/08/15 23:26:02;;;;;;;2.03;1.80;;;25.80;99.90;;;;;;20673834;28;20218;-77
2021/08/15 23:36:07;;;;;;;7.50;2.80;;;25.50;99.90;;;;;;20699903;28;20210;-80
2021/08/15 23:46:11;;;;;;;2.42;2.22;;;25.60;99.90;;;;;;20696772;28;20574;-81
2021/08/15 23:56:17;;;;;;;2.83;2.63;;;25.40;99.90;;;;;;20697936;28;20202;-80
